Aeroporto :
LOGIN :

Iscrizione | Disclaimer

   EN    FR    IT 

 










Sommario :    VFR   VFR Marginale   IFR   IFR Intensivo   IFR Molto Intensivo
Visibilità : 
Base nubi : 
>= 8 km
>= 3000ft
5 / 8 km
1000 / 3000 ft
1500m / 5 km
500 / 1000 ft
800 / 1500m
200 / 500 ft
< 800m
< 200 ft
Simboli :   Temporali  Nebbia  Neve Forte  Precipitazioni Forti  Vento > 20 kt
SIGMETs :   Varie  Temporali  Ghiacco  Turbolenza  Onda orograficha  Ceneri Vulcaniche







- Altitudine del aeroporto : 989 ft
- Codice IATA : TRN


LIMF - Torino Caselle

ULTIMO METAR :
  • 191450Z 10004KT 060V150 9999 BKN030 16/10 Q1004

METARs OBSOLETI :
  • 191420Z VRB02KT 9999 BKN040 16/10 Q1004
  • 191350Z 12003KT 9999 BKN035 16/10 Q1004
  • 191320Z 03003KT 320V100 9999 BKN035 15/09 Q1004
  • 191250Z 01003KT 290V090 9999 BKN030 16/09 Q1005
  • 191220Z 31004KT 260V020 9999 SCT015 BKN050 15/09 Q1005
  • 191150Z 30005KT 9999 SCT015 BKN050 15/11 Q1005

TAF TAF LIMF
Valido dal 19 a 12 ore il 20 a 12 ore UTC


191100Z 1912/2012 VRB05KT 7000 SCT025 BKN050
TEMPO 1912/2009 4000 RA
Nessun NOTAM noto per questo aeroporto.
1 SIGMET conosciuto per la FIR Milano (LIMM) :
 
Temporali frequenti
LIMM SIGMET 1 VALID 191230/191500 LIIP
LIMM MILANO FIR FRQ TS OBS WI N4526 E01214 - N4511 E01109 - N4424 E01116 - N4334 E01246 - N4331 E01350 - N4416 E01224 - N4452 E01230 - N4526 E01214 TOP FL290 STNR NC=



MetMap, La meteo Aeronautica in un colpo d'occhio ! - Copyright ORBIFLY Dicembre 2007 - Disclaimer

ORBIFLY MET'MAP TEAM :

Programmazione e sviluppo : Alexandra Zaïnal
Concezione e sviluppo : Baudouin d'Aumeries
Co-Programmazione e sviluppo : Marc-Olivier Méhu
Supporto tecnico e logistico : Manuel Goepfert
Aiuto per la traduzione : Arnaldo La Scala

Contatto : metmap@orbifly.com




FONTI E CREDITI :

   NOAA